NCAR-RAP Real-Time Weather Data

Output produced by METARs form (14 October 2019  22:34 UTC)
found at http://weather.rap.ucar.edu/surface/
 
KTPA 142153Z 27006KT 10SM FEW038 SCT050 30/22 A3001 RMK AO2 SLP162 T03000217
KTPA 142053Z 25006KT 10SM SCT060 30/20 A3001 RMK AO2 SLP162 T03000200 55007
KTPA 141953Z 23007KT 10SM SCT055 30/20 A3000 RMK AO2 SLP159 T03000200
KTPA 141853Z 25007KT 10SM SCT040 31/21 A3001 RMK AO2 SLP163 T03060206
KTPA 141753Z 21009KT 10SM SCT040 SCT250 31/21 A3003 RMK AO2 SLP170 T03060211 10306 20233 58017
KTPA 141653Z 27006KT 10SM SCT040 BKN250 28/22 A3006 RMK AO2 SLP177 T02830217
KTPA 141553Z 15005KT 10SM FEW040 FEW250 30/20 A3008 RMK AO2 SLP185 T03000200
KTPA 141453Z 14004KT 10SM FEW035 FEW250 29/21 A3008 RMK AO2 SLP186 T02890206 50008
KTPA 141353Z 00000KT 10SM FEW025 FEW200 28/22 A3008 RMK AO2 SLP187 T02830217
KTPA 141253Z 07003KT 10SM CLR 25/21 A3006 RMK AO2 SLP180 T02500206
KTPA 141153Z 00000KT 10SM FEW020 23/21 A3006 RMK AO2 SLP178 T02330206 10250 20228 51011
KTPA 141053Z 03003KT 10SM CLR 23/21 A3005 RMK AO2 SLP175 T02330206
KTPA 140953Z 00000KT 10SM CLR 23/21 A3004 RMK AO2 SLP171 T02330206
KTPA 140853Z 00000KT 10SM CLR 24/21 A3003 RMK AO2 SLP167 T02390206 56007
KTPA 140753Z 00000KT 10SM FEW060 24/21 A3003 RMK AO2 SLP168 T02390206
KTPA 140653Z 10003KT 10SM FEW060 24/21 A3004 RMK AO2 SLP171 T02440206
KTPA 140553Z VRB04KT 10SM BKN055 25/21 A3005 RMK AO2 SLP175 T02500206 10278 20250 50002
KTPA 140453Z 11005KT 10SM SCT060 26/21 A3005 RMK AO2 SLP176 T02560206 403060217
KTPA 140353Z 09004KT 10SM FEW060 26/20 A3006 RMK AO2 SLP177 T02560200
KTPA 140253Z 02004KT 10SM FEW050 26/20 A3004 RMK AO2 SLP173 T02560200 51009
KTPA 140153Z 01005KT 10SM FEW050 26/20 A3004 RMK AO2 SLP172 T02610200
KTPA 140053Z 01004KT 10SM FEW050 27/20 A3003 RMK AO2 SLP167 T02670200
KTPA 132353Z 34007KT 10SM SCT050 27/19 A3002 RMK AO2 SLP164 T02720194 10300 20272 53008
KTPA 132253Z 26003KT 10SM SCT050 28/18 A3000 RMK AO2 SLP159 T02830183
KTPA 132153Z 27005KT 10SM FEW050 FEW150 29/18 A2999 RMK AO2 SLP156 T02940178
KTPA 132053Z 24006KT 10SM SCT050 BKN150 29/18 A3000 RMK AO2 SLP157 T02940183 56011
KTPA 131953Z 23006KT 10SM SCT055 BKN170 29/19 A3000 RMK AO2 SLP157 T02890194
KTPA 131853Z 23007KT 10SM BKN055 BKN160 BKN270 29/19 A3001 RMK AO2 SLP163 T02890189
KTPA 131753Z 26006KT 10SM SCT045 SCT160 29/19 A3003 RMK AO2 SLP168 T02940194 10306 20222 58013
KTPA 131653Z VRB03KT 10SM SCT044 SCT180 30/18 A3005 RMK AO2 SLP176 T03000183
KTPA 131553Z VRB04KT 10SM FEW040 29/18 A3006 RMK AO2 SLP180 T02890183
KTPA 131453Z 10006KT 10SM FEW036 27/19 A3007 RMK AO2 SLP180 T02720189 51006
KTPA 131353Z VRB04KT 10SM CLR 26/19 A3006 RMK AO2 SLP179 T02610189
KTPA 131253Z 06004KT 10SM CLR 24/19 A3005 RMK AO2 SLP177 T02390194
KTPA 131153Z 06003KT 10SM CLR 22/19 A3005 RMK AO2 SLP174 T02220194 10239 20217 53014
KTPA 131053Z 06003KT 10SM CLR 22/19 A3003 RMK AO2 SLP169 T02220194
KTPA 130953Z 07003KT 10SM CLR 23/19 A3002 RMK AO2 SLP163 T02280189
KTPA 130853Z 10003KT 10SM CLR 23/19 A3001 RMK AO2 SLP161 T02330194 56007
KTPA 130753Z 10006KT 10SM CLR 23/19 A3001 RMK AO2 SLP163 T02330194
KTPA 130653Z 12005KT 10SM CLR 24/19 A3001 RMK AO2 SLP163 T02390194
KTPA 130553Z 12007KT 10SM CLR 24/19 A3003 RMK AO2 SLP168 T02390194 10267 20239 58004
KTPA 130453Z 12007KT 10SM CLR 24/20 A3004 RMK AO2 SLP170 T02440200 403110217
KTPA 130353Z 12005KT 10SM CLR 25/20 A3003 RMK AO2 SLP170 T02500200
KTPA 130253Z 07005KT 10SM CLR 25/18 A3004 RMK AO2 SLP172 T02500178 51010
KTPA 130153Z 02004KT 10SM CLR 25/17 A3003 RMK AO2 SLP167 T02500172
KTPA 130053Z 01004KT 10SM FEW048 26/17 A3002 RMK AO2 SLP166 T02560172
KTPA 122353Z VRB05KT 10SM FEW050 27/17 A3001 RMK AO2 SLP161 T02670167 10311 20261 53012
KTPA 122253Z 32005KT 10SM SCT055 28/16 A2999 RMK AO2 SLP155 T02780156